Data for 06/29/2006

Time Sea-Level Adjusted Pressure Absolute Pressure Temperature Relative Humidity Dew Point   
(mb) (inHg) (mb) (inHg) (C) (F) (%) (C) (F)
00:05 1022 30.18 851 25.13 23.3 74 37 8 46.4
00:10 1022 30.18 851 25.13 21.9 71.5 44 9.4 48.9
00:15 1022 30.18 851 25.13 20.9 69.6 45 8.7 47.6
00:20 1022 30.18 851 25.13 21.2 70.1 40 7.3 45.2
00:25 1022 30.18 851 25.13 21.4 70.5 45 9.2 48.5
00:30 1022 30.18 851 25.13 20.8 69.4 45 8.6 47.5
00:35 1022 30.18 851 25.13 20.8 69.5 46 8.9 48.1
00:40 1022 30.18 851 25.13 20.8 69.4 46 8.7 47.7
00:45 1022 30.18 851 25.13 20.6 69.1 49 9.7 49.5
00:50 1022 30.18 851 25.13 20.8 69.5 46 8.9 47.9
00:55 1022 30.18 851 25.13 21 69.8 45 8.9 48
01:00 1022 30.18 851 25.13 20.5 68.9 53 10.7 51.2
01:05 1022 30.18 851 25.13 20.4 68.6 49 9.3 48.8
01:10 1022 30.18 851 25.13 19.9 67.8 49 8.9 48
01:15 1022 30.18 851 25.13 20.3 68.6 46 8.3 47
01:20 1022 30.18 851 25.13 20.4 68.8 44 8 46.4
01:25 1022 30.18 851 25.13 20.6 69 45 8.2 46.8
01:30 1022 30.18 851 25.13 20.8 69.4 48 9.4 49
01:35 1022 30.18 851 25.13 20.5 68.8 46 8.7 47.7
01:40 1021 30.15 851 25.13 19.9 67.9 50 9.3 48.8
01:45 1021 30.15 851 25.13 19.8 67.7 47 8.5 47.2
01:50 1021 30.15 851 25.13 19.9 67.7 44 7.5 45.5
01:55 1021 30.15 851 25.13 19.9 67.9 49 9.1 48.5
02:00 1021 30.15 850 25.1 19.6 67.3 49 8.9 47.9
02:05 1021 30.15 850 25.1 19.4 66.8 47 7.9 46.3
02:10 1021 30.15 850 25.1 19.7 67.5 51 9.3 48.8
02:15 1021 30.15 850 25.1 19.6 67.3 47 8.2 46.8
02:20 1021 30.15 851 25.13 19.2 66.5 48 8.2 46.7
02:25 1021 30.15 851 25.13 19.3 66.7 47 7.7 45.9
02:30 1021 30.15 851 25.13 19.3 66.7 44 6.8 44.2
02:35 1021 30.15 851 25.13 19.6 67.3 45 7.4 45.4
02:40 1021 30.15 851 25.13 19.5 67 44 6.9 44.4
02:45 1021 30.15 851 25.13 19.4 66.9 46 7.6 45.7
02:50 1021 30.15 851 25.13 18.9 66 47 7.4 45.4
02:55 1021 30.15 851 25.13 18.8 65.8 47 7.4 45.3
03:00 1021 30.15 851 25.13 18.5 65.3 49 7.6 45.7
03:05 1021 30.15 851 25.13 18.3 64.9 52 8.3 46.9
03:10 1021 30.15 851 25.13 18.3 65 48 7.2 45
03:15 1021 30.15 851 25.13 18.4 65.1 51 8.1 46.5
03:20 1021 30.15 851 25.13 18.8 65.8 49 7.9 46.2
03:25 1022 30.18 851 25.13 18.9 66 49 8 46.4
03:30 1022 30.18 851 25.13 18.1 64.6 48 7.2 45
03:35 1022 30.18 851 25.13 18.3 65 51 8.2 46.7
03:40 1022 30.18 851 25.13 18.2 64.7 49 7.5 45.5
03:45 1022 30.18 851 25.13 18 64.3 51 7.9 46.2
03:50 1022 30.18 851 25.13 17.8 64 51 7.8 46
03:55 1021 30.15 851 25.13 17.6 63.6 52 7.8 46.1
04:00 1021 30.15 851 25.13 17.4 63.3 52 7.4 45.4
04:05 1021 30.15 851 25.13 17 62.7 52 7.3 45.1
04:10 1021 30.15 851 25.13 17 62.6 53 7.3 45.2
04:15 1021 30.15 851 25.13 17.1 62.8 50 6.6 43.8
04:20 1021 30.15 850 25.1 17.9 64.2 48 6.7 44.1
04:25 1021 30.15 851 25.13 17.9 64.2 48 6.8 44.2
04:30 1021 30.15 851 25.13 17.7 63.8 49 6.9 44.4
04:35 1021 30.15 851 25.13 17.4 63.4 50 7.1 44.7
04:40 1021 30.15 851 25.13 17.2 63 52 7.3 45.1
04:45 1022 30.18 851 25.13 16.9 62.4 50 6.5 43.8
04:50 1022 30.18 851 25.13 17.1 62.8 49 6.3 43.4
04:55 1022 30.18 851 25.13 17.3 63.2 48 6.2 43.2
05:00 1022 30.18 851 25.13 17.3 63.2 49 6.6 43.8
05:05 1022 30.18 851 25.13 17.1 62.7 51 6.9 44.4
05:10 1022 30.18 851 25.13 16.4 61.6 54 7.1 44.8
05:15 1022 30.18 851 25.13 15.9 60.6 55 7 44.6
05:20 1022 30.18 851 25.13 15.9 60.6 55 7 44.5
05:25 1022 30.18 851 25.13 16.3 61.4 52 6.5 43.7
05:30 1022 30.18 851 25.13 16.3 61.3 52 6.4 43.6
05:35 1022 30.18 851 25.13 16.4 61.4 52 6.7 44
05:40 1022 30.18 851 25.13 16.5 61.7 53 6.9 44.4
05:45 1022 30.18 851 25.13 16.5 61.6 52 6.6 43.9
05:50 1022 30.18 851 25.13 16.1 61.1 53 6.5 43.7
05:55 1022 30.18 851 25.13 15.7 60.2 56 6.9 44.5
06:00 1022 30.18 851 25.13 15.1 59.2 58 7 44.5
06:05 1022 30.18 851 25.13 15.1 59.2 56 6.5 43.6
06:10 1022 30.18 851 25.13 15.3 59.5 56 6.6 43.9
06:15 1022 30.18 851 25.13 15.5 59.8 56 6.7 44.1
06:20 1022 30.18 851 25.13 15.5 59.8 55 6.5 43.8
06:25 1022 30.18 851 25.13 16 60.7 52 6.2 43.2
06:30 1022 30.18 851 25.13 16.3 61.4 52 6.5 43.7
06:35 1022 30.18 851 25.13 16.6 61.9 51 6.5 43.6
06:40 1022 30.18 851 25.13 16.7 62 51 6.7 44.1
06:45 1022 30.18 851 25.13 16.5 61.8 52 6.7 44
06:50 1022 30.18 851 25.13 16.6 61.8 53 7 44.6
06:55 1022 30.18 851 25.13 16.4 61.6 55 7.3 45.2
07:00 1022 30.18 851 25.13 16.1 61 57 7.7 45.8
07:05 1022 30.18 851 25.13 16.1 61 55 7 44.7
07:10 1022 30.18 851 25.13 16.8 62.2 53 7.2 44.9
07:15 1022 30.18 851 25.13 17.2 62.9 51 7.2 44.9
07:20 1022 30.18 851 25.13 17.6 63.6 52 7.6 45.7
07:25 1022 30.18 851 25.13 17.8 64 51 7.5 45.4
07:30 1022 30.18 851 25.13 17.9 64.1 50 7.5 45.5
07:35 1022 30.18 851 25.13 17.9 64.2 53 8.3 47
07:40 1022 30.18 851 25.13 18.1 64.6 51 7.8 46.1
07:45 1022 30.18 852 25.16 18.4 65.1 51 8.2 46.8
07:50 1022 30.18 852 25.16 18.9 66 49 8.2 46.7
07:55 1023 30.21 852 25.16 19.5 67.1 47 8 46.5
08:00 1023 30.21 852 25.16 20 67.9 47 8.5 47.3
08:05 1023 30.21 852 25.16 20.2 68.4 46 8.5 47.2
08:10 1023 30.21 852 25.16 20.8 69.4 44 8.2 46.7
08:15 1023 30.21 852 25.16 20.9 69.6 45 8.5 47.4
08:20 1023 30.21 852 25.16 21.2 70.1 41 7.7 45.9
08:25 1023 30.21 852 25.16 21.5 70.7 42 8.3 46.9
08:30 1023 30.21 852 25.16 21.8 71.3 43 8.9 48
08:35 1023 30.21 852 25.16 21.9 71.5 42 8.6 47.6
08:40 1023 30.21 852 25.16 21.9 71.4 43 8.9 47.9
08:45 1023 30.21 852 25.16 22.1 71.8 41 8.5 47.3
08:50 1023 30.21 852 25.16 22.3 72.2 42 8.9 48
08:55 1023 30.21 852 25.16 22.6 72.7 41 8.8 47.9
09:00 1023 30.21 852 25.16 22.5 72.5 42 9.2 48.5
09:05 1023 30.21 852 25.16 23.1 73.5 40 8.9 48
09:10 1023 30.21 852 25.16 23.7 74.7 38 8.9 47.9
09:15 1023 30.21 852 25.16 23.9 75 38 9 48.3
09:20 1023 30.21 852 25.16 24.2 75.6 36 8.6 47.5
09:25 1023 30.21 852 25.16 24.5 76.1 35 8.3 46.9
09:30 1023 30.21 852 25.16 24.2 75.5 36 8.5 47.3
09:35 1023 30.21 852 25.16 24.4 76 35 8.2 46.8
09:40 1023 30.21 852 25.16 24.9 76.9 35 8.6 47.4
09:45 1023 30.21 852 25.16 25.2 77.4 34 8.4 47.1
09:50 1023 30.21 852 25.16 24.8 76.7 34 8.1 46.5
09:55 1023 30.21 852 25.16 23.9 74.9 35 7.9 46.2
10:00 1023 30.21 852 25.16 23.6 74.4 37 8.1 46.5
10:05 1023 30.21 852 25.16 24.1 75.4 35 7.9 46.2
10:10 1023 30.21 852 25.16 24.9 76.9 33 7.8 46
10:15 1023 30.21 852 25.16 25.5 77.9 32 7.8 46
10:20 1023 30.21 852 25.16 25.7 78.3 32 8.1 46.7
10:25 1023 30.21 852 25.16 25.7 78.3 34 9.1 48.3
10:30 1023 30.21 852 25.16 24.6 76.2 36 8.8 47.9
10:35 1023 30.21 852 25.16 25.2 77.3 37 9.6 49.3
10:40 1023 30.21 852 25.16 26 78.8 35 9.6 49.2
10:45 1023 30.21 852 25.16 25.9 78.6 38 10.7 51.3
10:50 1023 30.21 852 25.16 25.3 77.6 37 9.9 49.8
10:55 1023 30.21 852 25.16 26.4 79.5 33 9.3 48.7
11:00 1023 30.21 852 25.16 26.9 80.4 33 9.6 49.3
11:05 1023 30.21 852 25.16 27.2 81 32 9.5 49
11:10 1023 30.21 852 25.16 27 80.7 32 9.3 48.8
11:15 1023 30.21 852 25.16 27.4 81.3 32 9.5 49.2
11:20 1023 30.21 852 25.16 26.5 79.8 32 8.9 48
11:25 1023 30.21 852 25.16 27.5 81.5 30 8.8 47.9
11:30 1023 30.21 852 25.16 27.9 82.3 29 8.5 47.4
11:35 1023 30.21 852 25.16 27.9 82.2 30 9.2 48.6
11:40 1023 30.21 852 25.16 27.7 81.9 31 9.4 48.9
11:45 1023 30.21 852 25.16 26.9 80.3 31 8.7 47.6
11:50 1023 30.21 852 25.16 27.7 81.9 29 8.4 47
11:55 1023 30.21 852 25.16 27.9 82.2 28 8.2 46.7
12:00 1023 30.21 852 25.16 28.3 83 27 7.8 46
12:05 1023 30.21 852 25.16 28.5 83.3 26 7.6 45.6
12:10 1023 30.21 852 25.16 28.9 84 26 7.8 46.1
12:15 1023 30.21 852 25.16 29.4 84.9 25 7.8 46
12:20 1022 30.18 852 25.16 29.3 84.7 25 7.7 45.9
12:25 1022 30.18 852 25.16 29.5 85.1 26 8.4 47.2
12:30 1022 30.18 852 25.16 29.5 85.1 25 7.8 46.1
12:35 1022 30.18 852 25.16 30 86.1 24 7.8 46.1
12:40 1022 30.18 851 25.13 29.9 85.9 26 8.5 47.3
12:45 1022 30.18 851 25.13 30 86.1 25 8.1 46.5
12:50 1022 30.18 851 25.13 30 86 26 8.8 47.9
12:55 1022 30.18 851 25.13 30.1 86.1 22 6.7 44
13:00 1022 30.18 851 25.13 30 86 21 5.7 42.3
13:05 1022 30.18 851 25.13 30.3 86.6 22 6.6 43.9
13:10 1022 30.18 851 25.13 30.4 86.7 22 6.5 43.8
13:15 1022 30.18 851 25.13 30.8 87.4 24 8.5 47.2
13:20 1022 30.18 851 25.13 30.7 87.3 25 8.7 47.7
13:25 1022 30.18 851 25.13 30.4 86.6 23 7.5 45.5
13:30 1022 30.18 851 25.13 30.1 86.1 24 7.6 45.8
13:35 1022 30.18 851 25.13 30 86 24 7.7 45.9
13:40 1021 30.15 851 25.13 29.6 85.3 26 8.3 46.9
13:45 1021 30.15 851 25.13 29.7 85.4 27 8.8 47.9
13:50 1021 30.15 851 25.13 29.6 85.2 25 7.9 46.2
13:55 1021 30.15 851 25.13 30.2 86.3 26 8.8 47.8
14:00 1021 30.15 851 25.13 30.1 86.2 24 7.7 45.9
14:05 1021 30.15 851 25.13 30 86.1 25 8.1 46.6
14:10 1021 30.15 851 25.13 29.7 85.4 26 8.3 46.9
14:15 1021 30.15 850 25.1 29.8 85.6 26 8.5 47.3
14:20 1021 30.15 850 25.1 30.2 86.4 23 7.3 45.2
14:25 1021 30.15 850 25.1 30.9 87.7 22 6.9 44.4
14:30 1021 30.15 850 25.1 31.4 88.5 22 7.3 45.1
14:35 1021 30.15 850 25.1 31.3 88.4 22 7.3 45.2
14:40 1021 30.15 850 25.1 31.7 89.1 20 6.3 43.3
14:45 1021 30.15 850 25.1 30.8 87.5 21 6 42.8
14:50 1021 30.15 850 25.1 31.3 88.3 21 6.5 43.7
14:55 1021 30.15 850 25.1 31.6 88.8 20 6.6 43.8
15:00 1021 30.15 850 25.1 31.8 89.2 19 6 42.8
15:05 1021 30.15 850 25.1 31.3 88.3 20 6.2 43.1
15:10 1021 30.15 850 25.1 31.2 88.1 21 6.4 43.5
15:15 1021 30.15 850 25.1 30.3 86.6 22 6.8 44.2
15:20 1021 30.15 850 25.1 30.8 87.5 21 6.1 43.1
15:25 1021 30.15 850 25.1 31.7 89 20 6.6 43.9
15:30 1020 30.12 850 25.1 31.7 89.1 23 8.6 47.6
15:35 1020 30.12 850 25.1 30.5 87 25 8.5 47.2
15:40 1020 30.12 850 25.1 29.7 85.5 24 7.2 45
15:45 1021 30.15 850 25.1 30 86 24 7.7 45.9
15:50 1021 30.15 850 25.1 29.6 85.3 27 8.9 48
15:55 1020 30.12 850 25.1 29.1 84.4 30 9.9 49.8
16:00 1020 30.12 849 25.07 29 84.1 30 9.9 49.8
16:05 1020 30.12 849 25.07 28.5 83.4 32 10.4 50.6
16:10 1020 30.12 849 25.07 28.4 83 29 8.8 47.9
16:15 1020 30.12 849 25.07 28.5 83.3 28 8.5 47.3
16:20 1020 30.12 849 25.07 28.3 82.9 29 8.7 47.6
16:25 1020 30.12 849 25.07 28.1 82.6 32 10.3 50.5
16:30 1020 30.12 850 25.1 27.5 81.5 40 12.9 55.3
16:35 1021 30.15 850 25.1 25.9 78.7 45 13.2 55.7
16:40 1021 30.15 850 25.1 25.1 77.2 44 12.1 53.8
16:45 1021 30.15 851 25.13 24 75.2 52 13.8 56.8
16:50 1021 30.15 851 25.13 22.7 72.9 41 9 48.2
16:55 1021 30.15 851 25.13 22.7 72.8 42 9.4 48.9
17:00 1021 30.15 850 25.1 22.8 73.1 39 8.3 47
17:05 1021 30.15 850 25.1 23.3 73.9 38 8.2 46.8
17:10 1021 30.15 850 25.1 23.6 74.5 37 8.2 46.8
17:15 1021 30.15 851 25.13 24.1 75.3 35 7.8 46
17:20 1022 30.18 851 25.13 22 71.7 60 14 57.1
17:25 1022 30.18 851 25.13 20.1 68.1 61 12.5 54.4
17:30 1022 30.18 851 25.13 20 68 60 12.2 54
17:35 1022 30.18 851 25.13 20.6 69 53 10.8 51.4
17:40 1022 30.18 851 25.13 21.7 71 52 11.6 52.9
17:45 1022 30.18 851 25.13 22.4 72.2 47 10.6 51.1
17:50 1021 30.15 851 25.13 22.8 73.1 45 10.3 50.6
17:55 1021 30.15 850 25.1 23.1 73.6 45 10.6 51.1
18:00 1021 30.15 850 25.1 23.3 73.9 44 10.6 51.1
18:05 1021 30.15 851 25.13 23.2 73.8 45 10.8 51.4
18:10 1022 30.18 851 25.13 23 73.4 46 11 51.7
18:15 1022 30.18 851 25.13 22.9 73.1 49 11.7 53.1
18:20 1022 30.18 851 25.13 22.4 72.3 53 12.4 54.3
18:25 1022 30.18 851 25.13 21.9 71.4 57 13 55.5
18:30 1022 30.18 851 25.13 21.4 70.5 61 13.7 56.7
18:35 1022 30.18 851 25.13 21.1 69.9 62 13.5 56.3
18:40 1022 30.18 851 25.13 21 69.8 64 13.9 57.1
18:45 1022 30.18 851 25.13 21.2 70.1 61 13.4 56.2
18:50 1022 30.18 851 25.13 21.4 70.5 59 13.2 55.8
18:55 1022 30.18 851 25.13 21.4 70.5 58 12.9 55.2
19:00 1022 30.18 851 25.13 20.8 69.4 63 13.5 56.3
19:05 1022 30.18 852 25.16 20.6 69.1 61 12.8 55.1
19:10 1023 30.21 852 25.16 20.7 69.3 59 12.6 54.7
19:15 1022 30.18 851 25.13 21.1 69.9 58 12.7 54.8
19:20 1022 30.18 851 25.13 21.1 69.9 59 13 55.4
19:25 1023 30.21 852 25.16 21.2 70.1 58 12.8 55
19:30 1023 30.21 852 25.16 21.2 70.2 58 12.7 54.9
19:35 1024 30.24 853 25.19 21.3 70.3 58 12.8 55
19:40 1024 30.24 853 25.19 21.2 70.1 62 13.6 56.5
19:45 1024 30.24 853 25.19 21.1 69.9 62 13.7 56.6
19:50 1023 30.21 853 25.19 21 69.8 63 13.7 56.7
19:55 1023 30.21 853 25.19 21 69.9 63 13.8 56.8
20:00 1023 30.21 853 25.19 21 69.7 65 14.2 57.6
20:05 1023 30.21 853 25.19 20.9 69.5 65 14.1 57.4
20:10 1024 30.24 853 25.19 20.6 69 64 13.8 56.8
20:15 1024 30.24 853 25.19 20.3 68.6 64 13.5 56.2
20:20 1024 30.24 853 25.19 20.1 68.2 65 13.4 56.1
20:25 1024 30.24 853 25.19 20 67.9 66 13.4 56.1
20:30 1024 30.24 853 25.19 19.8 67.7 67 13.6 56.4
20:35 1024 30.24 853 25.19 19.4 67 69 13.6 56.5
20:40 1024 30.24 853 25.19 19 66.1 70 13.4 56.2
20:45 1024 30.24 853 25.19 18.5 65.4 70 13.1 55.5
20:50 1024 30.24 853 25.19 18.7 65.7 68 12.8 55
20:55 1024 30.24 853 25.19 18.9 66 67 12.7 54.8
21:00 1025 30.27 854 25.22 19 66.1 67 12.8 55
21:05 1025 30.27 854 25.22 19.1 66.3 66 12.8 55
21:10 1025 30.27 854 25.22 19 66.1 66 12.7 54.8
21:15 1025 30.27 854 25.22 19 66.2 67 12.8 55
21:20 1025 30.27 854 25.22 19 66.1 68 13 55.4
21:25 1025 30.27 854 25.22 18.7 65.7 72 13.7 56.6
21:30 1025 30.27 854 25.22 18.5 65.2 74 13.7 56.7
21:35 1025 30.27 854 25.22 18.3 64.9 76 14 57.2
21:40 1025 30.27 854 25.22 17.7 63.9 81 14.4 57.9
21:45 1025 30.27 855 25.25 17.2 62.9 82 14.2 57.5
21:50 1026 30.3 855 25.25 16.8 62.3 84 14.1 57.4
21:55 1026 30.3 855 25.25 16.7 62 85 14.2 57.5
22:00 1026 30.3 855 25.25 16.7 62 85 14.2 57.5
22:05 1026 30.3 855 25.25 16.6 61.9 87 14.4 57.9
22:10 1025 30.27 854 25.22 16.1 61 91 14.6 58.3
22:15 1025 30.27 854 25.22 15.5 60 92 14.3 57.7
22:20 1025 30.27 854 25.22 15.4 59.8 92 14.1 57.4
22:25 1025 30.27 854 25.22 15.7 60.2 89 13.9 57.1
22:30 1025 30.27 854 25.22 15.6 60 92 14.3 57.7
22:35 1024 30.24 854 25.22 15.4 59.8 92 14.1 57.4
22:40 1024 30.24 854 25.22 15.4 59.7 91 14 57.2
22:45 1024 30.24 853 25.19 15.6 60.2 90 14.1 57.3
22:50 1024 30.24 854 25.22 15.8 60.5 91 14.4 57.8
22:55 1024 30.24 854 25.22 15.9 60.5 90 14.3 57.7
23:00 1024 30.24 854 25.22 15.8 60.5 90 14.3 57.7
23:05 1024 30.24 853 25.19 15.7 60.2 89 13.8 56.9
23:10 1024 30.24 853 25.19 15.6 60.1 91 14.1 57.4
23:15 1024 30.24 853 25.19 15.6 60.1 87 13.5 56.2
23:20 1024 30.24 853 25.19 15.8 60.5 86 13.5 56.2
23:25 1024 30.24 853 25.19 15.7 60.2 86 13.5 56.2
23:30 1024 30.24 853 25.19 15.6 60 87 13.5 56.3
23:35 1024 30.24 853 25.19 15.5 59.9 88 13.6 56.5
23:40 1024 30.24 853 25.19 15.4 59.6 89 13.5 56.3
23:45 1024 30.24 853 25.19 15.2 59.4 88 13.3 55.9
23:50 1025 30.27 854 25.22 15.3 59.6 87 13.2 55.7
23:55 1025 30.27 854 25.22 15.6 60.1 85 13.2 55.7
24:00 1025 30.27 854 25.22 15.8 60.4 85 13.2 55.8